createdAt,value
2022-11-08T00:02:06.371Z,13.48
2022-11-08T00:04:34.602Z,13.48
2022-11-08T00:07:19.871Z,13.43
2022-11-08T00:10:05.214Z,13.41
2022-11-08T00:12:50.640Z,13.45
2022-11-08T00:15:17.321Z,13.40
2022-11-08T00:17:44.279Z,13.40
2022-11-08T00:20:11.424Z,13.37
2022-11-08T00:22:38.127Z,13.31
2022-11-08T00:25:05.079Z,13.09
2022-11-08T00:27:31.754Z,13.19
2022-11-08T00:29:58.493Z,13.16
2022-11-08T00:32:26.586Z,13.15
2022-11-08T00:34:53.573Z,13.13
2022-11-08T00:37:21.710Z,13.13
2022-11-08T00:39:48.656Z,13.08
2022-11-08T00:42:15.488Z,13.10
2022-11-08T00:44:42.242Z,13.05
2022-11-08T00:47:09.075Z,12.95
2022-11-08T00:49:35.802Z,12.94
2022-11-08T00:52:02.517Z,12.83
2022-11-08T00:54:29.183Z,12.86
2022-11-08T00:56:55.875Z,12.83
2022-11-08T00:59:22.581Z,12.90
2022-11-08T01:01:49.359Z,12.88
2022-11-08T01:04:18.265Z,12.89
2022-11-08T01:06:45.257Z,12.86
2022-11-08T01:09:11.977Z,12.73
2022-11-08T01:11:39.795Z,12.66
2022-11-08T01:14:06.723Z,12.64
2022-11-08T01:16:34.060Z,12.72
2022-11-08T01:19:01.971Z,12.74
2022-11-08T01:21:29.428Z,12.72
2022-11-08T01:23:56.188Z,12.72
2022-11-08T01:26:25.643Z,12.69
2022-11-08T01:28:52.914Z,12.69
2022-11-08T01:31:26.180Z,12.67
2022-11-08T01:33:53.252Z,12.65
2022-11-08T01:36:22.759Z,12.65
2022-11-08T01:38:50.023Z,12.50
2022-11-08T01:41:19.078Z,12.39
2022-11-08T01:43:48.016Z,12.42
2022-11-08T01:46:37.195Z,12.49
2022-11-08T01:49:10.428Z,12.53
2022-11-08T01:51:45.961Z,12.55
2022-11-08T01:54:19.447Z,12.38
2022-11-08T01:56:46.257Z,12.47
2022-11-08T01:59:14.136Z,12.47
2022-11-08T02:01:42.165Z,12.50
2022-11-08T02:04:09.297Z,12.54
2022-11-08T02:06:37.629Z,12.55
2022-11-08T02:09:06.552Z,12.37
2022-11-08T02:11:33.807Z,12.36
2022-11-08T02:14:00.547Z,12.39
2022-11-08T02:16:27.252Z,12.39
2022-11-08T02:18:53.969Z,12.47
2022-11-08T02:21:39.132Z,12.49
2022-11-08T02:24:11.151Z,12.47
2022-11-08T02:26:38.222Z,12.46
2022-11-08T02:29:23.371Z,12.44
2022-11-08T02:31:50.120Z,12.39
2022-11-08T02:34:17.157Z,12.36
2022-11-08T02:36:46.639Z,12.30
2022-11-08T02:39:13.299Z,12.21
2022-11-08T02:41:39.961Z,12.26
2022-11-08T02:44:06.735Z,12.23
2022-11-08T02:46:33.413Z,12.18
2022-11-08T02:49:00.069Z,12.10
2022-11-08T02:51:26.744Z,12.16
2022-11-08T02:53:53.412Z,12.15
2022-11-08T02:56:20.073Z,12.16
2022-11-08T02:58:46.921Z,12.14
2022-11-08T03:01:13.697Z,12.14
2022-11-08T03:03:40.419Z,12.12
2022-11-08T03:06:07.105Z,12.10
2022-11-08T03:08:33.844Z,12.12
2022-11-08T03:11:01.007Z,12.14
2022-11-08T03:13:27.957Z,12.14
2022-11-08T03:15:54.657Z,12.20
2022-11-08T03:18:21.432Z,12.19
2022-11-08T03:20:48.096Z,12.19
2022-11-08T03:23:14.958Z,12.22
2022-11-08T03:25:41.646Z,12.20
2022-11-08T03:28:09.272Z,12.25
2022-11-08T03:30:36.637Z,12.23
2022-11-08T03:33:03.736Z,12.23
2022-11-08T03:35:30.493Z,12.26
2022-11-08T03:37:57.881Z,12.25
2022-11-08T03:40:25.324Z,12.22
2022-11-08T03:42:52.029Z,12.16
2022-11-08T03:45:18.763Z,12.15
2022-11-08T03:47:46.878Z,12.12
2022-11-08T03:50:15.607Z,12.07
2022-11-08T03:52:43.969Z,12.04
2022-11-08T03:55:11.679Z,11.99
2022-11-08T03:57:39.779Z,11.96
2022-11-08T04:00:08.119Z,11.91
2022-11-08T04:02:43.931Z,11.91
2022-11-08T04:05:12.036Z,11.83
2022-11-08T04:07:39.104Z,11.80
2022-11-08T04:10:06.739Z,11.75
2022-11-08T04:12:51.936Z,11.71
2022-11-08T04:15:21.822Z,11.69
2022-11-08T04:18:11.769Z,11.64
2022-11-08T04:20:58.627Z,11.57
2022-11-08T04:23:26.071Z,11.56
2022-11-08T04:26:00.616Z,11.51
2022-11-08T04:28:32.308Z,11.51
2022-11-08T04:31:04.674Z,11.48
2022-11-08T04:33:31.745Z,11.44
2022-11-08T04:36:06.787Z,11.40
2022-11-08T04:38:33.832Z,11.38
2022-11-08T04:41:02.857Z,11.32
2022-11-08T04:43:30.838Z,11.30
2022-11-08T04:46:18.675Z,11.29
2022-11-08T04:48:45.781Z,11.27
2022-11-08T04:51:17.939Z,11.26
2022-11-08T04:53:44.839Z,11.19
2022-11-08T04:56:14.089Z,11.15
2022-11-08T04:58:42.946Z,11.18
2022-11-08T05:01:11.302Z,11.17
2022-11-08T05:03:38.129Z,11.05
2022-11-08T05:06:07.284Z,11.10
2022-11-08T05:08:34.185Z,11.11
2022-11-08T05:11:05.452Z,11.08
2022-11-08T05:13:32.528Z,11.08
2022-11-08T05:16:01.007Z,11.06
2022-11-08T05:18:28.736Z,11.03
2022-11-08T05:21:15.136Z,11.02
2022-11-08T05:23:41.866Z,10.99
2022-11-08T05:26:09.049Z,10.96
2022-11-08T05:28:36.007Z,10.91
2022-11-08T05:31:02.886Z,10.92
2022-11-08T05:33:29.912Z,10.89
2022-11-08T05:35:56.582Z,10.86
2022-11-08T05:38:23.372Z,10.89
2022-11-08T05:40:53.079Z,10.89
2022-11-08T05:43:20.130Z,10.88
2022-11-08T05:45:47.112Z,10.84
2022-11-08T05:48:13.809Z,10.85
2022-11-08T05:50:40.530Z,10.80
2022-11-08T05:53:12.056Z,10.82
2022-11-08T05:55:38.759Z,10.80
2022-11-08T05:58:05.661Z,10.80
2022-11-08T06:00:32.366Z,10.79
2022-11-08T06:02:59.095Z,10.77
2022-11-08T06:05:25.818Z,10.77
2022-11-08T06:07:53.830Z,10.68
2022-11-08T06:10:20.709Z,10.70
2022-11-08T06:12:47.589Z,10.77
2022-11-08T06:15:14.386Z,10.73
2022-11-08T06:17:41.863Z,10.75
2022-11-08T06:20:11.927Z,10.77
2022-11-08T06:22:38.630Z,10.72
2022-11-08T06:25:05.514Z,10.69
2022-11-08T06:27:32.254Z,10.71
2022-11-08T06:29:58.931Z,10.71
2022-11-08T06:32:25.671Z,10.73
2022-11-08T06:34:52.362Z,10.55
2022-11-08T06:37:19.046Z,10.74
2022-11-08T06:39:45.850Z,10.72
2022-11-08T06:42:12.687Z,10.71
2022-11-08T06:44:39.622Z,10.69
2022-11-08T06:47:06.291Z,10.65
2022-11-08T06:49:33.082Z,10.68
2022-11-08T06:52:03.019Z,10.68
2022-11-08T06:54:29.939Z,10.66
2022-11-08T06:57:00.423Z,10.65
2022-11-08T06:59:27.614Z,10.65
2022-11-08T07:01:55.119Z,10.62
2022-11-08T07:04:21.938Z,10.63
2022-11-08T07:06:48.628Z,10.61
2022-11-08T07:09:15.334Z,10.60
2022-11-08T07:11:42.391Z,10.63
2022-11-08T07:14:09.102Z,10.61
2022-11-08T07:16:38.873Z,10.54
2022-11-08T07:19:05.539Z,10.36
2022-11-08T07:21:32.227Z,10.48
2022-11-08T07:23:58.946Z,10.47
2022-11-08T07:26:25.670Z,10.35
2022-11-08T07:28:52.367Z,10.40
2022-11-08T07:31:19.268Z,10.52
2022-11-08T07:33:45.951Z,10.66
2022-11-08T07:36:12.631Z,10.75
2022-11-08T07:38:39.355Z,10.77
2022-11-08T07:41:06.242Z,10.83
2022-11-08T07:43:33.057Z,10.83
2022-11-08T07:46:09.145Z,10.70
2022-11-08T07:48:35.992Z,10.70
2022-11-08T07:51:03.157Z,10.83
2022-11-08T07:53:29.988Z,11.03
2022-11-08T07:55:58.489Z,11.10
2022-11-08T07:58:25.504Z,11.11
2022-11-08T08:00:52.332Z,11.29
2022-11-08T08:03:19.394Z,11.33
2022-11-08T08:05:53.628Z,11.36
2022-11-08T08:08:23.651Z,11.38
2022-11-08T08:10:57.286Z,11.50
2022-11-08T08:13:23.943Z,11.58
2022-11-08T08:15:50.611Z,11.69
2022-11-08T08:18:21.011Z,11.91
2022-11-08T08:20:47.719Z,11.86
2022-11-08T08:23:14.393Z,11.89
2022-11-08T08:25:41.065Z,12.23
2022-11-08T08:28:07.765Z,12.28
2022-11-08T08:30:34.613Z,12.44
2022-11-08T08:36:01.136Z,12.78
2022-11-08T08:38:28.454Z,13.08
2022-11-08T08:40:55.169Z,13.21
2022-11-08T08:43:22.296Z,13.58
2022-11-08T08:45:49.206Z,13.61
2022-11-08T08:48:16.370Z,13.72
2022-11-08T08:50:43.112Z,13.89
2022-11-08T08:53:10.526Z,13.83
2022-11-08T08:55:38.967Z,14.10
2022-11-08T08:58:06.062Z,14.27
2022-11-08T09:03:20.413Z,14.42
2022-11-08T09:05:47.778Z,14.87
2022-11-08T09:08:15.227Z,15.11
2022-11-08T09:10:42.306Z,15.32
2022-11-08T09:13:09.136Z,15.52
2022-11-08T09:15:35.946Z,15.93
2022-11-08T09:18:02.806Z,16.26
2022-11-08T09:20:29.637Z,16.21
2022-11-08T09:23:01.568Z,16.58
2022-11-08T09:25:28.327Z,16.50
2022-11-08T09:27:55.493Z,16.70
2022-11-08T09:30:22.199Z,16.47
2022-11-08T09:33:00.757Z,16.70
2022-11-08T09:35:31.441Z,17.07
2022-11-08T09:37:58.732Z,17.44
2022-11-08T09:40:43.168Z,17.68
2022-11-08T09:43:25.027Z,17.69
2022-11-08T09:45:53.867Z,17.85
2022-11-08T09:48:45.189Z,17.66
2022-11-08T09:51:14.372Z,17.80
2022-11-08T09:53:53.385Z,17.91
2022-11-08T09:56:35.321Z,18.28
2022-11-08T09:59:23.757Z,18.15
2022-11-08T10:01:50.721Z,18.09
2022-11-08T10:04:20.266Z,18.13
2022-11-08T10:07:11.888Z,18.40
2022-11-08T10:09:53.916Z,18.36
2022-11-08T10:12:39.942Z,18.51
2022-11-08T10:15:51.854Z,18.63
2022-11-08T10:18:38.936Z,18.71
2022-11-08T10:21:22.915Z,18.56
2022-11-08T10:24:03.375Z,18.57
2022-11-08T10:26:38.230Z,18.44
2022-11-08T10:29:13.671Z,18.58
2022-11-08T10:31:41.251Z,18.51
2022-11-08T10:34:13.878Z,18.18
2022-11-08T10:36:52.555Z,17.77
2022-11-08T10:39:25.768Z,17.55
2022-11-08T10:42:20.136Z,17.92
2022-11-08T10:44:47.164Z,17.43
2022-11-08T10:47:31.039Z,17.23
2022-11-08T10:50:02.629Z,17.54
2022-11-08T10:52:37.504Z,17.50
2022-11-08T10:55:08.978Z,17.50
2022-11-08T10:57:43.142Z,17.44
2022-11-08T11:00:22.226Z,17.55
2022-11-08T11:02:56.038Z,17.48
2022-11-08T11:05:27.884Z,17.65
2022-11-08T11:08:01.950Z,17.68
2022-11-08T11:10:51.124Z,17.64
2022-11-08T11:13:29.505Z,17.45
2022-11-08T11:15:56.188Z,17.33
2022-11-08T11:18:33.850Z,17.25
2022-11-08T11:21:10.774Z,16.95
2022-11-08T11:23:55.025Z,17.02
2022-11-08T11:26:32.297Z,16.84
2022-11-08T11:29:08.397Z,16.59
2022-11-08T11:31:39.814Z,16.58
2022-11-08T11:34:18.914Z,16.79
2022-11-08T11:36:56.540Z,16.86
2022-11-08T11:39:28.784Z,16.76
2022-11-08T11:42:17.721Z,16.71
2022-11-08T11:45:14.043Z,16.71
2022-11-08T11:47:53.610Z,16.63
2022-11-08T11:50:32.741Z,16.66
2022-11-08T11:53:01.417Z,16.65
2022-11-08T11:55:51.240Z,16.58
2022-11-08T11:58:33.667Z,16.59
2022-11-08T12:01:14.039Z,16.75
2022-11-08T12:04:09.017Z,16.84
2022-11-08T12:07:04.662Z,16.93
2022-11-08T12:09:37.776Z,16.87
2022-11-08T12:12:26.630Z,16.78
2022-11-08T12:15:34.853Z,16.84
2022-11-08T12:18:41.490Z,16.80
2022-11-08T12:21:32.285Z,16.88
2022-11-08T12:24:45.202Z,16.70
2022-11-08T12:27:35.450Z,16.81
2022-11-08T12:30:38.124Z,17.00
2022-11-08T12:33:46.218Z,17.06
2022-11-08T12:36:22.296Z,17.10
2022-11-08T12:39:11.721Z,16.91
2022-11-08T12:41:48.801Z,16.72
2022-11-08T12:44:33.900Z,16.82
2022-11-08T12:47:28.453Z,16.64
2022-11-08T12:50:13.501Z,16.81
2022-11-08T12:52:59.710Z,16.98
2022-11-08T12:55:30.888Z,17.08
2022-11-08T12:57:58.959Z,17.02
2022-11-08T13:00:27.899Z,16.96
2022-11-08T13:03:16.591Z,17.02
2022-11-08T13:05:59.615Z,16.94
2022-11-08T13:08:35.115Z,16.90
2022-11-08T13:11:06.102Z,16.89
2022-11-08T13:13:56.316Z,16.88
2022-11-08T13:16:28.181Z,16.71
2022-11-08T13:18:59.781Z,16.92
2022-11-08T13:21:30.168Z,17.06
2022-11-08T13:24:14.017Z,17.03
2022-11-08T13:26:43.307Z,16.98
2022-11-08T13:29:13.330Z,16.82
2022-11-08T13:31:46.966Z,16.82
2022-11-08T13:34:44.391Z,16.69
2022-11-08T13:37:20.285Z,16.72
2022-11-08T13:40:18.152Z,16.73
2022-11-08T13:43:00.230Z,16.69
2022-11-08T13:45:34.918Z,16.82
2022-11-08T13:48:05.286Z,16.92
2022-11-08T13:50:33.919Z,16.88
2022-11-08T13:53:11.380Z,16.98
2022-11-08T13:55:44.306Z,16.75
2022-11-08T13:58:42.446Z,16.77
2022-11-08T14:01:18.593Z,16.76
2022-11-08T14:03:48.575Z,16.73
2022-11-08T14:06:27.918Z,16.80
2022-11-08T14:09:14.831Z,16.81
2022-11-08T14:11:49.919Z,16.78
2022-11-08T14:14:28.740Z,16.71
2022-11-08T14:17:24.263Z,16.79
2022-11-08T14:19:51.758Z,16.80
2022-11-08T14:22:27.111Z,16.76
2022-11-08T14:24:57.726Z,16.82
2022-11-08T14:27:39.156Z,16.78
2022-11-08T14:30:14.233Z,16.88
2022-11-08T14:32:41.046Z,16.89
2022-11-08T14:35:12.731Z,16.90
2022-11-08T14:37:42.309Z,16.79
2022-11-08T14:40:23.225Z,16.84
2022-11-08T14:42:50.961Z,16.65
2022-11-08T14:45:25.670Z,16.65
2022-11-08T14:47:54.491Z,16.74
2022-11-08T14:50:23.106Z,16.81
2022-11-08T14:52:50.245Z,16.77
2022-11-08T14:55:23.453Z,16.58
2022-11-08T14:57:50.268Z,16.51
2022-11-08T15:00:20.538Z,16.22
2022-11-08T15:02:49.898Z,16.27
2022-11-08T15:05:25.823Z,16.20
2022-11-08T15:07:52.818Z,16.24
2022-11-08T15:10:19.611Z,16.08
2022-11-08T15:12:46.466Z,16.02
2022-11-08T15:15:25.246Z,15.88
2022-11-08T15:18:12.544Z,15.84
2022-11-08T15:20:40.679Z,15.91
2022-11-08T15:23:45.759Z,16.08
2022-11-08T15:26:21.684Z,15.95
2022-11-08T15:29:07.959Z,16.16
2022-11-08T15:31:37.927Z,16.23
2022-11-08T15:34:05.322Z,16.28
2022-11-08T15:36:34.640Z,16.38
2022-11-08T15:39:01.997Z,16.37
2022-11-08T15:41:39.531Z,16.14
2022-11-08T15:44:22.239Z,16.07
2022-11-08T15:46:49.528Z,15.89
2022-11-08T15:49:27.146Z,15.76
2022-11-08T15:51:55.539Z,15.94
2022-11-08T15:54:23.646Z,15.88
2022-11-08T15:56:51.545Z,15.59
2022-11-08T15:59:21.643Z,15.66
2022-11-08T16:01:55.559Z,15.57
2022-11-08T16:04:22.758Z,15.70
2022-11-08T16:06:49.868Z,15.71
2022-11-08T16:09:16.778Z,15.67
2022-11-08T16:11:45.518Z,15.56
2022-11-08T16:14:18.370Z,15.44
2022-11-08T16:16:45.238Z,15.55
2022-11-08T16:19:24.238Z,15.64
2022-11-08T16:21:51.621Z,15.67
2022-11-08T16:24:18.665Z,15.64
2022-11-08T16:26:48.658Z,15.59
2022-11-08T16:29:24.864Z,15.47
2022-11-08T16:31:52.870Z,15.55
2022-11-08T16:34:20.135Z,15.46
2022-11-08T16:36:49.525Z,15.52
2022-11-08T16:39:22.502Z,15.62
2022-11-08T16:41:49.511Z,15.51
2022-11-08T16:44:16.337Z,15.43
2022-11-08T16:46:43.418Z,15.37
2022-11-08T16:49:28.449Z,15.21
2022-11-08T16:51:56.507Z,15.15
2022-11-08T16:54:28.696Z,15.14
2022-11-08T16:57:13.975Z,15.02
2022-11-08T16:59:43.977Z,14.75
2022-11-08T17:02:20.483Z,14.84
2022-11-08T17:04:47.224Z,14.82
2022-11-08T17:07:14.444Z,14.82
2022-11-08T17:09:41.414Z,14.65
2022-11-08T17:12:11.147Z,14.60
2022-11-08T17:14:37.996Z,14.65
2022-11-08T17:17:04.680Z,14.67
2022-11-08T17:19:31.413Z,14.71
2022-11-08T17:21:58.281Z,14.64
2022-11-08T17:24:25.282Z,14.59
2022-11-08T17:26:52.189Z,14.52
2022-11-08T17:29:19.003Z,14.66
2022-11-08T17:31:46.105Z,14.55
2022-11-08T17:34:12.975Z,14.69
2022-11-08T17:36:39.881Z,14.60
2022-11-08T17:39:06.680Z,14.50
2022-11-08T17:41:33.417Z,14.47
2022-11-08T17:44:00.187Z,14.47
2022-11-08T17:46:26.959Z,14.28
2022-11-08T17:48:53.858Z,14.26
2022-11-08T17:51:20.511Z,14.30
2022-11-08T17:53:47.663Z,14.59
2022-11-08T17:56:14.771Z,14.64
2022-11-08T17:58:41.732Z,14.67
2022-11-08T18:01:08.919Z,14.45
2022-11-08T18:03:36.009Z,14.48
2022-11-08T18:06:11.491Z,14.57
2022-11-08T18:08:38.692Z,14.75
2022-11-08T18:11:05.758Z,14.73
2022-11-08T18:13:32.874Z,14.68
2022-11-08T18:16:09.773Z,14.86
2022-11-08T18:18:36.763Z,14.55
2022-11-08T18:21:04.187Z,14.41
2022-11-08T18:23:31.246Z,14.37
2022-11-08T18:25:58.084Z,14.24
2022-11-08T18:28:25.337Z,14.11
2022-11-08T18:30:52.442Z,14.13
2022-11-08T18:33:20.973Z,13.99
2022-11-08T18:35:48.383Z,13.90
2022-11-08T18:38:15.252Z,13.81
2022-11-08T18:40:44.776Z,13.78
2022-11-08T18:43:11.617Z,14.04
2022-11-08T18:45:38.659Z,14.06
2022-11-08T18:48:05.902Z,14.11
2022-11-08T18:50:32.747Z,14.17
2022-11-08T18:53:03.986Z,14.19
2022-11-08T18:55:31.728Z,14.32
2022-11-08T18:58:00.936Z,14.33
2022-11-08T19:00:28.327Z,14.26
2022-11-08T19:02:55.188Z,14.09
2022-11-08T19:05:21.901Z,14.29
2022-11-08T19:07:48.552Z,14.07
2022-11-08T19:10:15.295Z,14.22
2022-11-08T19:12:41.987Z,14.37
2022-11-08T19:15:10.101Z,14.32
2022-11-08T19:17:37.505Z,14.38
2022-11-08T19:20:05.181Z,14.22
2022-11-08T19:22:32.183Z,14.17
2022-11-08T19:24:58.914Z,14.05
2022-11-08T19:27:25.765Z,14.08
2022-11-08T19:29:52.476Z,14.01
2022-11-08T19:32:19.341Z,14.10
2022-11-08T19:34:47.220Z,14.11
2022-11-08T19:37:13.967Z,13.99
2022-11-08T19:39:40.710Z,13.99
2022-11-08T19:42:07.599Z,14.14
2022-11-08T19:44:34.389Z,14.18
2022-11-08T19:47:01.131Z,14.11
2022-11-08T19:49:28.838Z,14.19
2022-11-08T19:51:55.624Z,14.26
2022-11-08T19:54:22.633Z,14.33
2022-11-08T19:57:06.178Z,14.17
2022-11-08T19:59:33.558Z,14.26
2022-11-08T20:02:00.610Z,14.20
2022-11-08T20:04:27.635Z,14.25
2022-11-08T20:06:55.998Z,14.32
2022-11-08T20:09:28.935Z,14.29
2022-11-08T20:11:57.240Z,14.39
2022-11-08T20:14:23.966Z,14.28
2022-11-08T20:16:54.063Z,14.09
2022-11-08T20:19:21.319Z,14.19
2022-11-08T20:21:48.611Z,14.25
2022-11-08T20:24:15.725Z,14.20
2022-11-08T20:26:43.208Z,14.30
2022-11-08T20:29:10.085Z,14.40
2022-11-08T20:31:37.302Z,14.33
2022-11-08T20:34:06.133Z,14.31
2022-11-08T20:36:35.418Z,14.34
2022-11-08T20:39:06.848Z,14.27
2022-11-08T20:41:35.622Z,14.11
2022-11-08T20:44:05.012Z,14.07
2022-11-08T20:46:36.835Z,14.16
2022-11-08T20:49:04.872Z,14.10
2022-11-08T20:51:32.099Z,14.11
2022-11-08T20:54:00.414Z,14.17
2022-11-08T20:56:27.657Z,14.05
2022-11-08T20:58:54.473Z,14.19
2022-11-08T21:01:28.434Z,14.16
2022-11-08T21:03:57.511Z,14.28
2022-11-08T21:06:26.060Z,14.41
2022-11-08T21:11:40.208Z,14.14
2022-11-08T21:14:08.329Z,14.23
2022-11-08T21:16:59.310Z,14.03
2022-11-08T21:19:23.132Z,13.98
2022-11-08T21:21:49.987Z,14.04
2022-11-08T21:24:17.331Z,14.02
2022-11-08T21:26:44.215Z,14.06
2022-11-08T21:29:10.923Z,13.95
2022-11-08T21:31:37.688Z,13.92
2022-11-08T21:34:04.528Z,14.08
2022-11-08T21:36:31.348Z,13.92
2022-11-08T21:39:00.220Z,13.93
2022-11-08T21:41:27.379Z,13.99
2022-11-08T21:43:54.185Z,14.13
2022-11-08T21:46:23.866Z,14.27
2022-11-08T21:48:58.234Z,14.47
2022-11-08T21:51:25.780Z,14.55
2022-11-08T21:53:55.306Z,14.35
2022-11-08T21:56:25.250Z,14.23
2022-11-08T21:58:55.021Z,14.39
2022-11-08T22:01:25.597Z,14.50
2022-11-08T22:03:55.476Z,14.37
2022-11-08T22:06:22.855Z,14.47
2022-11-08T22:08:49.705Z,14.52
2022-11-08T22:11:16.424Z,14.53
2022-11-08T22:13:43.191Z,14.59
2022-11-08T22:16:09.966Z,14.59
2022-11-08T22:18:58.692Z,14.63
2022-11-08T22:21:40.484Z,14.39
2022-11-08T22:24:10.656Z,14.49
2022-11-08T22:26:44.400Z,14.53
2022-11-08T22:29:12.685Z,14.49
2022-11-08T22:31:44.087Z,14.30
2022-11-08T22:34:11.114Z,14.22
2022-11-08T22:36:44.373Z,14.15
2022-11-08T22:39:13.525Z,14.29
2022-11-08T22:41:40.325Z,14.22
2022-11-08T22:44:11.800Z,14.15
2022-11-08T22:46:39.507Z,14.25
2022-11-08T22:49:06.237Z,14.30
2022-11-08T22:51:32.972Z,14.26
2022-11-08T22:53:59.789Z,14.19
2022-11-08T22:56:26.634Z,14.02
2022-11-08T22:58:53.400Z,13.97
2022-11-08T23:01:20.132Z,13.91
2022-11-08T23:03:47.908Z,14.02
2022-11-08T23:06:15.597Z,14.18
2022-11-08T23:08:42.477Z,14.16
2022-11-08T23:11:28.412Z,14.28
2022-11-08T23:14:13.631Z,14.36
2022-11-08T23:16:42.763Z,14.28
2022-11-08T23:19:32.942Z,14.36
2022-11-08T23:22:18.893Z,14.40
2022-11-08T23:24:46.097Z,14.36
2022-11-08T23:27:33.647Z,14.40
2022-11-08T23:30:19.003Z,14.32
2022-11-08T23:32:47.723Z,14.27
2022-11-08T23:35:15.216Z,14.15
2022-11-08T23:37:41.966Z,14.19
2022-11-08T23:40:29.276Z,14.20
2022-11-08T23:43:23.349Z,14.31
2022-11-08T23:45:50.059Z,14.23
2022-11-08T23:48:16.694Z,14.23
2022-11-08T23:50:51.007Z,14.24
2022-11-08T23:53:18.775Z,14.26
2022-11-08T23:55:45.711Z,14.03
2022-11-08T23:58:13.991Z,13.90
